createdAt,value
2022-12-23T00:02:32.530Z,37.30
2022-12-23T00:05:40.620Z,36.67
2022-12-23T00:08:42.853Z,38.55
2022-12-23T00:11:44.197Z,40.97
2022-12-23T00:14:45.579Z,35.55
2022-12-23T00:17:46.921Z,37.20
2022-12-23T00:20:48.321Z,32.05
2022-12-23T00:23:51.023Z,35.85
2022-12-23T00:26:52.407Z,33.75
2022-12-23T00:29:53.776Z,32.40
2022-12-23T00:32:55.159Z,39.28
2022-12-23T00:35:56.550Z,39.08
2022-12-23T00:38:59.250Z,39.00
2022-12-23T00:42:00.653Z,40.57
2022-12-23T00:45:02.008Z,40.35
2022-12-23T00:48:03.561Z,37.53
2022-12-23T00:51:05.108Z,34.95
2022-12-23T00:54:06.610Z,43.33
2022-12-23T00:57:08.010Z,40.10
2022-12-23T01:00:09.963Z,42.00
2022-12-23T01:03:12.607Z,41.45
2022-12-23T01:06:14.119Z,39.45
2022-12-23T01:09:15.491Z,40.97
2022-12-23T01:12:16.892Z,41.50
2022-12-23T01:15:18.227Z,40.55
2022-12-23T01:18:19.568Z,38.67
2022-12-23T01:21:20.931Z,41.83
2022-12-23T01:24:22.719Z,44.42
2022-12-23T01:27:24.061Z,45.67
2022-12-23T01:30:25.424Z,46.03
2022-12-23T01:33:26.836Z,41.13
2022-12-23T01:36:28.192Z,43.85
2022-12-23T01:39:29.580Z,46.40
2022-12-23T01:42:31.179Z,46.00
2022-12-23T01:45:33.522Z,45.78
2022-12-23T01:48:35.370Z,50.50
2022-12-23T01:51:36.752Z,44.83
2022-12-23T01:54:39.367Z,39.90
2022-12-23T01:57:42.671Z,46.77
2022-12-23T02:00:46.392Z,47.80
2022-12-23T02:03:49.287Z,45.15
2022-12-23T02:06:51.392Z,46.78
2022-12-23T02:09:53.073Z,51.42
2022-12-23T02:13:19.221Z,53.30
2022-12-23T02:16:20.825Z,44.80
2022-12-23T02:19:57.289Z,46.25
2022-12-23T02:23:28.104Z,44.85
2022-12-23T02:27:07.961Z,45.83
2022-12-23T02:30:27.179Z,47.10
2022-12-23T02:33:38.282Z,42.67
2022-12-23T02:37:03.934Z,53.70
2022-12-23T02:40:18.357Z,50.80
2022-12-23T02:43:54.031Z,52.42
2022-12-23T02:47:02.834Z,50.70
2022-12-23T02:50:11.050Z,51.92
2022-12-23T02:53:19.712Z,57.25
2022-12-23T02:56:25.371Z,55.28
2022-12-23T02:59:30.785Z,55.25
2022-12-23T03:02:35.845Z,56.85
2022-12-23T03:05:44.309Z,64.95
2022-12-23T03:08:45.856Z,52.47
2022-12-23T03:12:11.106Z,60.45
2022-12-23T03:15:27.713Z,62.03
2022-12-23T03:18:48.039Z,57.00
2022-12-23T03:22:08.209Z,60.72
2022-12-23T03:25:34.395Z,61.78
2022-12-23T03:28:43.523Z,56.28
2022-12-23T03:31:46.245Z,57.75
2022-12-23T03:34:51.931Z,57.30
2022-12-23T03:37:56.027Z,57.17
2022-12-23T03:41:05.524Z,62.53
2022-12-23T03:44:13.374Z,63.33
2022-12-23T03:47:18.658Z,65.07
2022-12-23T03:50:22.547Z,66.05
2022-12-23T03:53:35.030Z,76.43
2022-12-23T03:56:41.232Z,70.50
2022-12-23T03:59:45.118Z,72.93
2022-12-23T04:02:58.027Z,62.92
2022-12-23T04:06:02.428Z,65.78
2022-12-23T04:09:05.945Z,63.38
2022-12-23T04:12:08.016Z,69.13
2022-12-23T04:15:13.053Z,69.60
2022-12-23T04:18:14.817Z,76.32
2022-12-23T04:21:16.215Z,85.63
2022-12-23T04:24:17.642Z,72.53
2022-12-23T04:27:19.211Z,79.85
2022-12-23T04:30:20.625Z,89.75
2022-12-23T04:33:22.019Z,91.45
2022-12-23T04:36:23.476Z,83.32
2022-12-23T04:39:24.871Z,77.15
2022-12-23T04:42:26.254Z,86.28
2022-12-23T04:45:27.613Z,93.93
2022-12-23T04:48:29.075Z,81.88
2022-12-23T04:51:30.412Z,108.40
2022-12-23T04:54:31.795Z,94.90
2022-12-23T04:57:33.237Z,88.97
2022-12-23T05:00:39.422Z,79.55
2022-12-23T05:03:41.538Z,83.70
2022-12-23T05:06:42.925Z,95.57
2022-12-23T05:09:44.271Z,93.47
2022-12-23T05:12:45.672Z,85.47
2022-12-23T05:15:50.146Z,98.93
2022-12-23T05:18:51.621Z,91.85
2022-12-23T05:21:53.013Z,93.35
2022-12-23T05:24:54.346Z,97.88
2022-12-23T05:27:55.716Z,99.10
2022-12-23T05:31:01.757Z,96.65
2022-12-23T05:34:06.576Z,100.05
2022-12-23T05:37:08.552Z,131.10
2022-12-23T05:40:10.232Z,119.25
2022-12-23T05:43:11.958Z,108.07
2022-12-23T05:46:13.403Z,116.50
2022-12-23T05:49:14.814Z,135.15
2022-12-23T05:52:16.178Z,118.57
2022-12-23T05:55:18.401Z,112.28
2022-12-23T05:58:19.741Z,145.07
2022-12-23T06:01:21.133Z,121.60
2022-12-23T06:04:22.573Z,132.48
2022-12-23T06:07:24.065Z,98.63
2022-12-23T06:10:25.474Z,109.13
2022-12-23T06:13:26.900Z,160.50
2022-12-23T06:16:28.568Z,198.13
2022-12-23T06:19:29.992Z,176.98
2022-12-23T06:22:31.593Z,181.18
2022-12-23T06:25:32.944Z,166.05
2022-12-23T06:28:34.858Z,185.93
2022-12-23T06:31:36.361Z,153.80
2022-12-23T06:34:37.871Z,209.55
2022-12-23T06:37:39.218Z,183.07
2022-12-23T06:40:40.769Z,192.25
2022-12-23T06:43:42.136Z,278.10
2022-12-23T06:46:43.499Z,192.85
2022-12-23T06:49:44.817Z,219.07
2022-12-23T06:52:46.230Z,259.35
2022-12-23T06:55:47.566Z,204.70
2022-12-23T06:58:48.913Z,234.23
2022-12-23T07:01:50.424Z,242.48
2022-12-23T07:04:51.817Z,243.80
2022-12-23T07:07:53.188Z,298.58
2022-12-23T07:11:00.157Z,286.70
2022-12-23T07:14:01.530Z,225.40
2022-12-23T07:17:02.985Z,243.75
2022-12-23T07:20:05.579Z,307.33
2022-12-23T07:23:06.922Z,277.57
2022-12-23T07:26:08.309Z,199.18
2022-12-23T07:29:09.731Z,146.55
2022-12-23T07:32:11.197Z,196.63
2022-12-23T07:35:12.589Z,212.65
2022-12-23T07:38:13.985Z,160.95
2022-12-23T07:41:15.393Z,222.63
2022-12-23T07:44:16.962Z,210.52
2022-12-23T07:47:18.280Z,169.18
2022-12-23T07:50:19.657Z,280.17
2022-12-23T07:53:20.996Z,269.98
2022-12-23T07:56:22.561Z,131.38
2022-12-23T07:59:25.975Z,175.25
2022-12-23T08:05:28.885Z,188.98
2022-12-23T08:08:31.046Z,166.38
2022-12-23T08:11:32.393Z,170.25
2022-12-23T08:14:33.744Z,159.73
2022-12-23T08:17:35.190Z,201.02
2022-12-23T08:20:36.527Z,146.13
2022-12-23T08:23:37.859Z,196.00
2022-12-23T08:26:39.259Z,165.60
2022-12-23T08:29:40.622Z,194.00
2022-12-23T08:32:42.006Z,159.55
2022-12-23T08:35:43.351Z,149.15
2022-12-23T08:38:45.045Z,153.50
2022-12-23T08:41:47.928Z,98.30
2022-12-23T08:47:51.526Z,144.70
2022-12-23T08:50:53.134Z,118.35
2022-12-23T08:54:00.414Z,110.55
2022-12-23T08:57:02.129Z,123.68
2022-12-23T09:00:03.987Z,109.57
2022-12-23T09:03:05.984Z,118.22
2022-12-23T09:06:12.557Z,79.78
2022-12-23T09:09:15.012Z,88.22
2022-12-23T09:12:16.357Z,82.33
2022-12-23T09:15:17.856Z,86.00
2022-12-23T09:18:19.343Z,62.75
2022-12-23T09:21:22.657Z,72.97
2022-12-23T09:24:24.331Z,68.88
2022-12-23T09:27:25.996Z,84.43
2022-12-23T09:30:27.713Z,76.10
2022-12-23T09:33:29.055Z,78.78
2022-12-23T09:36:30.457Z,82.13
2022-12-23T09:39:31.854Z,81.40
2022-12-23T09:42:49.804Z,78.50
2022-12-23T09:46:14.968Z,84.72
2022-12-23T09:49:17.910Z,73.07
2022-12-23T09:52:36.276Z,74.80
2022-12-23T09:55:50.219Z,60.25
2022-12-23T09:59:29.603Z,56.40
2022-12-23T10:02:50.643Z,67.28
2022-12-23T10:06:12.873Z,58.30
2022-12-23T10:09:17.344Z,63.22
2022-12-23T10:12:32.888Z,65.22
2022-12-23T10:15:41.153Z,51.33
2022-12-23T10:18:50.372Z,57.67
2022-12-23T10:21:59.808Z,49.38
2022-12-23T10:25:05.358Z,54.90
2022-12-23T10:28:09.954Z,51.35
2022-12-23T10:31:39.379Z,51.60
2022-12-23T10:34:57.182Z,53.15
2022-12-23T10:38:01.623Z,50.75
2022-12-23T10:41:09.662Z,45.22
2022-12-23T10:44:29.412Z,44.28
2022-12-23T10:47:54.902Z,44.08
2022-12-23T10:51:09.785Z,53.80
2022-12-23T10:54:16.742Z,39.60
2022-12-23T10:57:19.839Z,47.90
2022-12-23T11:00:23.555Z,51.95
2022-12-23T11:03:31.234Z,55.15
2022-12-23T11:06:38.453Z,48.15
2022-12-23T11:09:43.690Z,47.92
2022-12-23T11:12:50.291Z,44.30
2022-12-23T11:15:51.869Z,43.13
2022-12-23T11:18:56.953Z,43.17
2022-12-23T11:22:00.045Z,42.97
2022-12-23T11:25:37.048Z,43.67
2022-12-23T11:28:48.168Z,44.70
2022-12-23T11:31:50.579Z,43.50
2022-12-23T11:34:53.003Z,47.63
2022-12-23T11:37:55.920Z,41.85
2022-12-23T11:40:57.774Z,41.35
2022-12-23T11:44:04.494Z,46.00
2022-12-23T11:47:17.791Z,57.60
2022-12-23T11:50:34.484Z,56.38
2022-12-23T11:53:35.916Z,44.85
2022-12-23T11:56:40.236Z,42.17
2022-12-23T11:59:48.841Z,39.85
2022-12-23T12:02:52.418Z,43.58
2022-12-23T12:06:06.963Z,47.70
2022-12-23T12:09:13.110Z,36.58
2022-12-23T12:12:20.010Z,41.67
2022-12-23T12:15:41.155Z,35.67
2022-12-23T12:18:46.251Z,39.70
2022-12-23T12:21:54.504Z,40.95
2022-12-23T12:24:58.606Z,43.28
2022-12-23T12:28:04.164Z,40.00
2022-12-23T12:31:21.172Z,44.88
2022-12-23T12:34:44.092Z,42.33
2022-12-23T12:37:51.185Z,36.33
2022-12-23T12:40:57.840Z,36.30
2022-12-23T12:44:09.769Z,40.97
2022-12-23T12:51:12.937Z,40.83
2022-12-23T12:54:24.057Z,39.33
2022-12-23T12:57:25.889Z,44.45
2022-12-23T13:00:27.351Z,48.58
2022-12-23T13:04:07.570Z,45.00
2022-12-23T13:07:15.023Z,47.28
2022-12-23T13:10:32.446Z,51.40
2022-12-23T13:14:01.010Z,47.67
2022-12-23T13:17:07.142Z,45.40
2022-12-23T13:20:20.325Z,51.40
2022-12-23T13:23:44.387Z,48.00
2022-12-23T13:26:58.684Z,49.90
2022-12-23T13:30:09.931Z,54.03
2022-12-23T13:33:28.312Z,51.17
2022-12-23T13:36:52.491Z,52.75
2022-12-23T13:40:08.079Z,57.15
2022-12-23T13:43:15.782Z,52.13
2022-12-23T13:47:05.581Z,45.03
2022-12-23T13:50:26.608Z,44.90
2022-12-23T13:53:51.978Z,33.58
2022-12-23T13:57:06.981Z,37.40
2022-12-23T14:00:17.371Z,34.00
2022-12-23T14:03:23.581Z,32.28
2022-12-23T14:06:24.878Z,27.60
2022-12-23T14:09:35.659Z,35.15
2022-12-23T14:12:41.989Z,33.35
2022-12-23T14:16:12.525Z,38.75
2022-12-23T14:19:49.950Z,39.72
2022-12-23T14:23:09.724Z,40.75
2022-12-23T14:26:30.073Z,37.80
2022-12-23T14:29:43.582Z,40.65
2022-12-23T14:32:59.375Z,51.53
2022-12-23T14:36:22.460Z,43.00
2022-12-23T14:39:31.716Z,77.63
2022-12-23T14:42:41.158Z,80.07
2022-12-23T14:45:43.330Z,51.75
2022-12-23T14:48:44.660Z,73.43
2022-12-23T14:51:46.060Z,58.22
2022-12-23T14:55:20.726Z,55.60
2022-12-23T14:58:17.832Z,88.72
2022-12-23T15:01:31.650Z,52.92
2022-12-23T15:04:49.909Z,47.63
2022-12-23T15:07:53.083Z,57.67
2022-12-23T15:10:56.483Z,51.45
2022-12-23T15:17:14.756Z,45.03
2022-12-23T15:20:26.261Z,41.65
2022-12-23T15:23:27.802Z,50.28
2022-12-23T15:26:32.445Z,48.40
2022-12-23T15:29:33.857Z,49.22
2022-12-23T15:32:35.257Z,45.17
2022-12-23T15:35:39.572Z,43.05
2022-12-23T15:38:41.504Z,55.60
2022-12-23T15:41:45.101Z,49.75
2022-12-23T15:44:46.481Z,43.22
2022-12-23T15:47:47.905Z,40.03
2022-12-23T15:50:53.044Z,42.25
2022-12-23T15:53:59.326Z,49.25
2022-12-23T15:57:02.727Z,49.28
2022-12-23T16:03:30.181Z,43.22
2022-12-23T16:06:33.904Z,43.03
2022-12-23T16:09:36.454Z,34.45
2022-12-23T16:12:38.777Z,32.43
2022-12-23T16:15:40.169Z,31.45
2022-12-23T16:18:47.253Z,32.60
2022-12-23T16:21:49.249Z,34.75
2022-12-23T16:24:53.079Z,29.42
2022-12-23T16:28:14.528Z,27.85
2022-12-23T16:31:19.259Z,33.78
2022-12-23T16:34:20.825Z,29.85
2022-12-23T16:37:22.176Z,27.42
2022-12-23T16:40:23.568Z,29.20
2022-12-23T16:43:25.304Z,29.02
2022-12-23T16:46:27.720Z,29.77
2022-12-23T16:49:33.633Z,33.67
2022-12-23T16:52:35.455Z,30.98
2022-12-23T16:55:36.797Z,29.85
2022-12-23T16:58:38.508Z,35.05
2022-12-23T17:01:44.373Z,31.88
2022-12-23T17:04:45.847Z,32.75
2022-12-23T17:07:47.759Z,29.20
2022-12-23T17:10:50.407Z,28.07
2022-12-23T17:13:55.301Z,36.75
2022-12-23T17:16:59.368Z,34.25
2022-12-23T17:20:00.774Z,29.73
2022-12-23T17:23:02.216Z,36.00
2022-12-23T17:26:03.591Z,34.95
2022-12-23T17:29:05.981Z,39.08
2022-12-23T17:32:12.094Z,36.45
2022-12-23T17:35:15.012Z,30.52
2022-12-23T17:38:16.582Z,33.97
2022-12-23T17:41:28.875Z,30.10
2022-12-23T17:44:30.237Z,34.42
2022-12-23T17:47:31.570Z,35.63
2022-12-23T17:50:34.789Z,33.05
2022-12-23T17:53:36.132Z,35.60
2022-12-23T17:56:37.499Z,51.97
2022-12-23T17:59:38.851Z,38.97
2022-12-23T18:02:40.760Z,36.60
2022-12-23T18:05:42.206Z,38.05
2022-12-23T18:08:43.709Z,35.92
2022-12-23T18:11:47.822Z,41.10
2022-12-23T18:14:49.311Z,39.78
2022-12-23T18:17:52.568Z,51.67
2022-12-23T18:20:56.828Z,39.90
2022-12-23T18:23:59.656Z,42.90
2022-12-23T18:27:01.036Z,45.53
2022-12-23T18:30:02.386Z,47.08
2022-12-23T18:33:05.283Z,43.60
2022-12-23T18:36:20.564Z,44.83
2022-12-23T18:39:21.985Z,48.00
2022-12-23T18:42:23.357Z,47.13
2022-12-23T18:45:30.835Z,47.45
2022-12-23T18:48:32.213Z,46.15
2022-12-23T18:51:33.563Z,46.97
2022-12-23T18:54:34.929Z,45.72
2022-12-23T18:57:36.290Z,47.65
2022-12-23T19:00:37.627Z,51.80
2022-12-23T19:03:39.022Z,53.53
2022-12-23T19:06:40.628Z,49.22
2022-12-23T19:09:42.007Z,50.47
2022-12-23T19:12:43.497Z,49.28
2022-12-23T19:15:45.648Z,53.28
2022-12-23T19:18:48.317Z,50.10
2022-12-23T19:21:49.687Z,49.03
2022-12-23T19:25:04.823Z,50.53
2022-12-23T19:28:08.027Z,51.20
2022-12-23T19:31:13.631Z,54.35
2022-12-23T19:34:16.033Z,55.42
2022-12-23T19:37:18.043Z,53.57
2022-12-23T19:40:19.450Z,59.78
2022-12-23T19:43:20.796Z,66.95
2022-12-23T19:46:22.166Z,58.00
2022-12-23T19:49:23.742Z,61.88
2022-12-23T19:52:25.335Z,57.45
2022-12-23T19:55:26.690Z,57.67
2022-12-23T19:58:34.108Z,57.92
2022-12-23T20:01:35.564Z,57.92
2022-12-23T20:04:36.999Z,66.65
2022-12-23T20:07:38.336Z,56.63
2022-12-23T20:10:40.824Z,57.07
2022-12-23T20:13:42.434Z,61.45
2022-12-23T20:16:44.541Z,61.35
2022-12-23T20:19:46.584Z,61.33
2022-12-23T20:22:48.020Z,59.17
2022-12-23T20:25:49.849Z,62.00
2022-12-23T20:28:51.213Z,61.33
2022-12-23T20:31:52.594Z,57.30
2022-12-23T20:34:53.947Z,62.05
2022-12-23T20:37:55.331Z,62.88
2022-12-23T20:40:56.658Z,66.05
2022-12-23T20:47:19.889Z,58.92
2022-12-23T20:50:21.431Z,62.03
2022-12-23T20:53:22.846Z,62.45
2022-12-23T20:56:24.202Z,79.18
2022-12-23T20:59:25.858Z,72.03
2022-12-23T21:02:27.290Z,67.85
2022-12-23T21:05:28.724Z,74.57
2022-12-23T21:08:30.091Z,68.25
2022-12-23T21:11:34.272Z,66.75
2022-12-23T21:14:35.819Z,64.15
2022-12-23T21:17:37.175Z,76.97
2022-12-23T21:20:38.514Z,68.97
2022-12-23T21:23:41.638Z,71.32
2022-12-23T21:26:43.887Z,69.63
2022-12-23T21:29:45.378Z,68.68
2022-12-23T21:32:46.753Z,74.68
2022-12-23T21:35:48.088Z,72.20
2022-12-23T21:38:49.886Z,69.57
2022-12-23T21:41:51.411Z,75.53
2022-12-23T21:44:53.027Z,70.72
2022-12-23T21:47:54.385Z,72.80
2022-12-23T21:50:55.793Z,68.10
2022-12-23T21:53:58.543Z,71.00
2022-12-23T21:56:59.887Z,77.65
2022-12-23T22:00:01.296Z,79.15
2022-12-23T22:03:02.680Z,68.95
2022-12-23T22:06:10.726Z,67.25
2022-12-23T22:09:18.490Z,67.90
2022-12-23T22:12:19.856Z,73.85
2022-12-23T22:15:21.213Z,67.30
2022-12-23T22:18:22.594Z,64.03
2022-12-23T22:21:26.342Z,57.85
2022-12-23T22:24:27.701Z,65.88
2022-12-23T22:27:29.059Z,62.42
2022-12-23T22:30:30.426Z,52.50
2022-12-23T22:33:32.996Z,57.60
2022-12-23T22:36:34.495Z,56.70
2022-12-23T22:39:35.977Z,53.20
2022-12-23T22:42:37.342Z,55.03
2022-12-23T22:45:38.778Z,52.92
2022-12-23T22:48:40.209Z,52.47
2022-12-23T22:51:42.792Z,46.88
2022-12-23T22:54:44.150Z,51.10
2022-12-23T22:57:45.504Z,54.78
2022-12-23T23:00:46.851Z,48.50
2022-12-23T23:03:49.777Z,54.25
2022-12-23T23:06:51.125Z,53.85
2022-12-23T23:09:52.508Z,52.47
2022-12-23T23:12:53.915Z,42.53
2022-12-23T23:15:55.459Z,45.10
2022-12-23T23:18:57.454Z,44.90
2022-12-23T23:21:58.803Z,46.53
2022-12-23T23:25:00.195Z,43.78
2022-12-23T23:28:01.583Z,40.42
2022-12-23T23:31:39.708Z,38.90
2022-12-23T23:34:24.374Z,41.78
2022-12-23T23:37:25.703Z,38.25
2022-12-23T23:40:27.123Z,38.15
2022-12-23T23:43:28.544Z,38.55
2022-12-23T23:46:30.138Z,33.63
2022-12-23T23:49:31.572Z,41.75
2022-12-23T23:52:33.151Z,36.28
2022-12-23T23:55:34.530Z,31.70
2022-12-23T23:58:36.890Z,32.05
